Time;durP1;ratioP1;P1;durP2;ratioP2;P2;SDS_P1;SDS_P2;PMS_P1;PMS_P2;Temp;Humidity;BMP_temperature;BMP_pressure;BME280_temperature;BME280_humidity;BME280_pressure;Samples;Min_cycle;Max_cycle;Signal;HPM_P1;HPM_P2
2021/01/30 00:00:37;;;;;;;11.33;6.40;;;;;;;;;;4774842;29;178690;-66
2021/01/30 00:03:05;;;;;;;8.70;6.43;;;;;;;;;;4776447;29;178013;-66
2021/01/30 00:05:33;;;;;;;11.50;7.37;;;;;;;;;;4774634;29;177994;-66
2021/01/30 00:08:06;;;;;;;9.13;7.17;;;;;;;;;;4775993;29;180024;-66
2021/01/30 00:10:33;;;;;;;9.87;7.00;;;;;;;;;;4774068;29;178101;-66
2021/01/30 00:13:00;;;;;;;8.90;6.23;;;;;;;;;;4776405;29;178177;-65
2021/01/30 00:15:28;;;;;;;9.70;7.17;;;;;;;;;;4776503;29;177957;-66
2021/01/30 00:17:56;;;;;;;8.93;6.37;;;;;;;;;;4774197;29;183087;-65
2021/01/30 00:20:24;;;;;;;11.27;6.80;;;;;;;;;;4775195;29;181290;-65
2021/01/30 00:22:53;;;;;;;7.97;5.80;;;;;;;;;;4773724;29;177884;-65
2021/01/30 00:25:24;;;;;;;8.60;6.37;;;;;;;;;;4774466;29;178607;-65
2021/01/30 00:27:51;;;;;;;10.83;6.93;;;;;;;;;;4776142;29;179757;-65
2021/01/30 00:30:18;;;;;;;12.30;6.80;;;;;;;;;;4776003;29;178261;-65
2021/01/30 00:32:45;;;;;;;7.87;5.50;;;;;;;;;;4772792;29;178797;-66
2021/01/30 00:35:13;;;;;;;9.97;7.37;;;;;;;;;;4772824;29;178426;-66
2021/01/30 00:37:39;;;;;;;12.20;7.33;;;;;;;;;;4768108;29;179388;-66
2021/01/30 00:40:07;;;;;;;9.47;6.53;;;;;;;;;;4771501;29;178621;-66
2021/01/30 00:42:34;;;;;;;8.73;6.73;;;;;;;;;;4770951;29;181904;-66
2021/01/30 00:45:01;;;;;;;10.40;6.93;;;;;;;;;;4774873;29;177947;-65
2021/01/30 00:47:27;;;;;;;10.97;7.47;;;;;;;;;;4774772;29;179745;-65
2021/01/30 00:49:54;;;;;;;10.67;6.23;;;;;;;;;;4759473;29;181467;-66
2021/01/30 00:52:24;;;;;;;10.63;6.50;;;;;;;;;;4774296;29;179327;-65
2021/01/30 00:55:02;;;;;;;11.37;6.40;;;;;;;;;;4773832;28;180680;-66
2021/01/30 00:57:29;;;;;;;8.77;6.67;;;;;;;;;;4774039;28;180711;-66
2021/01/30 00:59:56;;;;;;;9.97;7.50;;;;;;;;;;4774990;28;182011;-65
2021/01/30 01:02:23;;;;;;;10.20;6.33;;;;;;;;;;4758349;29;179635;-66
2021/01/30 01:04:49;;;;;;;10.47;6.27;;;;;;;;;;4770811;29;178042;-65
2021/01/30 01:07:16;;;;;;;8.57;5.70;;;;;;;;;;4772646;29;182579;-66
2021/01/30 01:09:43;;;;;;;9.87;7.00;;;;;;;;;;4769378;29;181378;-65
2021/01/30 01:12:10;;;;;;;9.47;6.70;;;;;;;;;;4759468;29;178283;-66
2021/01/30 01:14:37;;;;;;;10.23;6.73;;;;;;;;;;4776048;29;178008;-65
2021/01/30 01:17:04;;;;;;;8.43;6.20;;;;;;;;;;4774473;29;178567;-65
2021/01/30 01:19:31;;;;;;;11.73;7.03;;;;;;;;;;4775008;29;180057;-65
2021/01/30 01:21:58;;;;;;;9.53;6.23;;;;;;;;;;4773836;29;178038;-65
2021/01/30 01:24:25;;;;;;;14.53;7.17;;;;;;;;;;4775135;29;176591;-65
2021/01/30 01:26:51;;;;;;;15.17;6.90;;;;;;;;;;4775223;29;178659;-65
2021/01/30 01:29:19;;;;;;;8.03;6.13;;;;;;;;;;4774525;29;179543;-65
2021/01/30 01:31:50;;;;;;;8.10;5.87;;;;;;;;;;4772720;29;182027;-65
2021/01/30 01:34:17;;;;;;;10.03;6.70;;;;;;;;;;4773843;29;179325;-65
2021/01/30 01:36:43;;;;;;;12.73;7.13;;;;;;;;;;4774836;29;178821;-65
2021/01/30 01:39:10;;;;;;;8.60;6.70;;;;;;;;;;4778403;29;179815;-65
2021/01/30 01:41:37;;;;;;;10.70;7.87;;;;;;;;;;4772577;29;177941;-65
2021/01/30 01:44:03;;;;;;;9.10;7.50;;;;;;;;;;4779272;29;177956;-65
2021/01/30 01:46:33;;;;;;;10.20;7.50;;;;;;;;;;4774887;29;180344;-65
2021/01/30 01:49:03;;;;;;;9.33;7.07;;;;;;;;;;4776895;29;180046;-65
2021/01/30 01:51:33;;;;;;;9.73;7.07;;;;;;;;;;4776438;29;178817;-65
2021/01/30 01:54:03;;;;;;;10.50;6.87;;;;;;;;;;4776874;29;178825;-65
2021/01/30 01:56:31;;;;;;;7.67;6.30;;;;;;;;;;4774830;29;182772;-65
2021/01/30 01:59:00;;;;;;;9.23;6.97;;;;;;;;;;4776758;29;182561;-65
2021/01/30 02:01:28;;;;;;;9.10;7.03;;;;;;;;;;4777320;29;180647;-65
2021/01/30 02:03:56;;;;;;;9.90;7.17;;;;;;;;;;4778325;28;178449;-65
2021/01/30 02:06:23;;;;;;;10.63;7.10;;;;;;;;;;4775492;29;181078;-65
2021/01/30 02:08:50;;;;;;;12.23;7.37;;;;;;;;;;4776441;29;178948;-65
2021/01/30 02:11:17;;;;;;;10.53;7.10;;;;;;;;;;4776415;29;178079;-65
2021/01/30 02:13:51;;;;;;;12.23;7.37;;;;;;;;;;4777120;29;180618;-65
2021/01/30 02:16:30;;;;;;;9.63;6.70;;;;;;;;;;4778060;29;178610;-65
2021/01/30 02:19:16;;;;;;;8.03;6.47;;;;;;;;;;4776890;29;178240;-65
2021/01/30 02:21:55;;;;;;;9.23;7.07;;;;;;;;;;4775841;29;181716;-65
2021/01/30 02:24:52;;;;;;;8.60;6.40;;;;;;;;;;4772068;29;179126;-65
2021/01/30 02:27:52;;;;;;;10.50;7.30;;;;;;;;;;4771911;29;179385;-65
2021/01/30 02:30:40;;;;;;;11.07;7.57;;;;;;;;;;4735586;29;178225;-65
2021/01/30 02:33:24;;;;;;;11.07;7.33;;;;;;;;;;4775314;29;180121;-65
2021/01/30 02:36:05;;;;;;;10.97;7.17;;;;;;;;;;4777943;29;179649;-65
2021/01/30 02:38:34;;;;;;;10.60;8.20;;;;;;;;;;4774817;29;179773;-65
2021/01/30 02:41:05;;;;;;;11.00;7.80;;;;;;;;;;4774354;29;176598;-65
2021/01/30 02:43:36;;;;;;;12.50;8.20;;;;;;;;;;4765321;29;178088;-65
2021/01/30 02:46:06;;;;;;;11.10;7.53;;;;;;;;;;4760801;29;178046;-65
2021/01/30 02:48:39;;;;;;;12.63;8.23;;;;;;;;;;4773349;29;184013;-65
2021/01/30 02:51:07;;;;;;;15.00;8.17;;;;;;;;;;4777692;29;182803;-65
2021/01/30 02:53:36;;;;;;;13.23;8.90;;;;;;;;;;4777211;29;179007;-65
2021/01/30 02:56:04;;;;;;;13.57;8.60;;;;;;;;;;4777335;29;177941;-65
2021/01/30 02:58:46;;;;;;;14.40;8.83;;;;;;;;;;4778144;29;179961;-65
2021/01/30 03:01:12;;;;;;;14.17;8.80;;;;;;;;;;4775177;29;178321;-65
2021/01/30 03:03:39;;;;;;;16.20;9.77;;;;;;;;;;4776824;29;178891;-65
2021/01/30 03:06:29;;;;;;;14.90;9.30;;;;;;;;;;4777465;29;176572;-65
2021/01/30 03:09:07;;;;;;;15.77;9.77;;;;;;;;;;4756594;29;182212;-65
2021/01/30 03:11:41;;;;;;;18.10;10.77;;;;;;;;;;4774907;29;178394;-65
2021/01/30 03:14:28;;;;;;;20.30;11.73;;;;;;;;;;4774232;29;181700;-65
2021/01/30 03:16:55;;;;;;;16.13;11.03;;;;;;;;;;4775049;29;179175;-65
2021/01/30 03:19:24;;;;;;;15.10;9.97;;;;;;;;;;4774937;29;180626;-65
2021/01/30 03:21:53;;;;;;;17.90;11.53;;;;;;;;;;4774395;29;178738;-65
2021/01/30 03:24:20;;;;;;;15.63;10.63;;;;;;;;;;4775239;29;177947;-65
2021/01/30 03:26:48;;;;;;;16.83;10.43;;;;;;;;;;4775900;29;178011;-65
2021/01/30 03:29:17;;;;;;;19.17;11.47;;;;;;;;;;4775308;29;178270;-65
2021/01/30 03:31:44;;;;;;;18.30;10.17;;;;;;;;;;4774944;29;179229;-65
2021/01/30 03:34:11;;;;;;;18.20;10.53;;;;;;;;;;4772631;29;178620;-65
2021/01/30 03:36:37;;;;;;;20.00;11.87;;;;;;;;;;4774288;29;178194;-65
2021/01/30 03:39:09;;;;;;;22.57;11.57;;;;;;;;;;4757239;29;182518;-65
2021/01/30 03:41:35;;;;;;;16.93;10.30;;;;;;;;;;4766455;29;182882;-65
2021/01/30 03:44:02;;;;;;;19.47;11.43;;;;;;;;;;4775769;29;178244;-65
2021/01/30 03:46:29;;;;;;;18.77;11.40;;;;;;;;;;4774778;29;177939;-65
2021/01/30 03:48:55;;;;;;;22.93;10.97;;;;;;;;;;4774716;29;179433;-65
2021/01/30 03:51:22;;;;;;;18.17;11.33;;;;;;;;;;4775148;29;178319;-65
2021/01/30 03:53:49;;;;;;;17.60;11.40;;;;;;;;;;4775201;29;178532;-65
2021/01/30 03:56:15;;;;;;;21.83;11.20;;;;;;;;;;4772493;29;177095;-65
2021/01/30 03:58:45;;;;;;;19.43;12.00;;;;;;;;;;4775420;29;179278;-65
2021/01/30 04:01:12;;;;;;;21.00;11.60;;;;;;;;;;4758313;29;179998;-65
2021/01/30 04:03:39;;;;;;;18.67;11.97;;;;;;;;;;4757994;29;182024;-65
2021/01/30 04:06:11;;;;;;;22.50;12.20;;;;;;;;;;4762221;29;178296;-65
2021/01/30 04:08:37;;;;;;;20.93;12.50;;;;;;;;;;4774328;29;179372;-65
2021/01/30 04:11:04;;;;;;;20.87;11.70;;;;;;;;;;4770724;29;180490;-65
2021/01/30 04:13:31;;;;;;;23.47;12.87;;;;;;;;;;4775202;29;178554;-65
2021/01/30 04:15:57;;;;;;;22.40;13.37;;;;;;;;;;4775441;29;178907;-65
2021/01/30 04:18:24;;;;;;;31.20;13.40;;;;;;;;;;4773227;29;180576;-65
2021/01/30 04:20:51;;;;;;;22.67;13.20;;;;;;;;;;4770466;29;178255;-65
2021/01/30 04:23:17;;;;;;;23.53;13.33;;;;;;;;;;4774309;29;178390;-65
2021/01/30 04:25:44;;;;;;;21.83;13.30;;;;;;;;;;4774084;29;179043;-65
2021/01/30 04:28:11;;;;;;;19.60;13.53;;;;;;;;;;4772591;29;182414;-65
2021/01/30 04:30:38;;;;;;;23.10;13.20;;;;;;;;;;4774724;29;181108;-65
2021/01/30 04:33:06;;;;;;;20.90;12.83;;;;;;;;;;4773421;29;178033;-65
2021/01/30 04:35:34;;;;;;;22.77;13.97;;;;;;;;;;4756055;29;179302;-65
2021/01/30 04:38:01;;;;;;;20.33;12.53;;;;;;;;;;4773489;29;179101;-65
2021/01/30 04:40:33;;;;;;;21.70;12.47;;;;;;;;;;4772923;29;179474;-65
2021/01/30 04:43:11;;;;;;;22.70;12.63;;;;;;;;;;4773859;29;179176;-65
2021/01/30 04:45:48;;;;;;;20.30;12.27;;;;;;;;;;4772625;29;178503;-65
2021/01/30 04:48:41;;;;;;;23.67;13.17;;;;;;;;;;4772548;29;181065;-65
2021/01/30 04:51:10;;;;;;;21.33;12.00;;;;;;;;;;4773606;29;178979;-65
2021/01/30 04:53:46;;;;;;;25.37;12.70;;;;;;;;;;4770999;29;181432;-65
2021/01/30 04:56:32;;;;;;;22.03;11.97;;;;;;;;;;4774540;29;178465;-65
2021/01/30 04:59:06;;;;;;;21.93;11.90;;;;;;;;;;4774882;29;179327;-64
2021/01/30 05:01:44;;;;;;;24.60;12.27;;;;;;;;;;4773341;29;178662;-65
2021/01/30 05:04:15;;;;;;;21.07;12.00;;;;;;;;;;4769022;29;179099;-64
2021/01/30 05:06:51;;;;;;;20.53;11.40;;;;;;;;;;4773721;29;178320;-64
2021/01/30 05:09:22;;;;;;;21.33;11.43;;;;;;;;;;4772185;29;180914;-65
2021/01/30 05:11:56;;;;;;;23.07;11.00;;;;;;;;;;4772220;29;178502;-64
2021/01/30 05:14:25;;;;;;;18.63;10.70;;;;;;;;;;4774533;29;178436;-65
2021/01/30 05:17:04;;;;;;;18.83;10.83;;;;;;;;;;4773061;29;178150;-65
2021/01/30 05:19:34;;;;;;;20.77;10.93;;;;;;;;;;4764333;29;182004;-64
2021/01/30 05:22:01;;;;;;;18.23;10.27;;;;;;;;;;4773097;29;182722;-65
2021/01/30 05:24:29;;;;;;;18.87;10.40;;;;;;;;;;4773973;29;179389;-64
2021/01/30 05:27:05;;;;;;;16.87;9.50;;;;;;;;;;4773435;29;180876;-65
2021/01/30 05:29:49;;;;;;;13.80;9.10;;;;;;;;;;4775761;29;179701;-65
2021/01/30 05:32:42;;;;;;;17.93;10.13;;;;;;;;;;4772166;29;178694;-64
2021/01/30 05:35:09;;;;;;;16.50;8.50;;;;;;;;;;4744820;29;181375;-64
2021/01/30 05:37:38;;;;;;;17.20;9.20;;;;;;;;;;4775589;29;176977;-64
2021/01/30 05:40:08;;;;;;;14.00;8.60;;;;;;;;;;4774684;29;179858;-65
2021/01/30 05:42:40;;;;;;;13.07;9.00;;;;;;;;;;4773945;29;178399;-65
2021/01/30 05:45:26;;;;;;;19.90;8.73;;;;;;;;;;4769054;29;183904;-65
2021/01/30 05:47:53;;;;;;;13.83;8.77;;;;;;;;;;4774822;29;178729;-65
2021/01/30 05:50:27;;;;;;;14.77;8.57;;;;;;;;;;4774984;29;179950;-65
2021/01/30 05:52:55;;;;;;;11.80;8.17;;;;;;;;;;4773408;29;178651;-65
2021/01/30 05:55:27;;;;;;;13.93;9.30;;;;;;;;;;4775608;29;177970;-65
2021/01/30 05:57:55;;;;;;;11.93;8.13;;;;;;;;;;4775438;29;178278;-65
2021/01/30 06:00:23;;;;;;;12.70;8.13;;;;;;;;;;4774018;29;179371;-65
2021/01/30 06:03:05;;;;;;;12.43;8.10;;;;;;;;;;4770181;29;178239;-65
2021/01/30 06:05:37;;;;;;;12.77;8.50;;;;;;;;;;4772210;29;177892;-65
2021/01/30 06:08:15;;;;;;;12.80;7.90;;;;;;;;;;4776241;29;178671;-65
2021/01/30 06:10:43;;;;;;;13.13;8.37;;;;;;;;;;4773835;29;182544;-65
2021/01/30 06:13:15;;;;;;;25.80;8.67;;;;;;;;;;4776091;29;181392;-65
2021/01/30 06:15:43;;;;;;;14.50;8.53;;;;;;;;;;4762496;29;177977;-65
2021/01/30 06:18:18;;;;;;;14.37;8.07;;;;;;;;;;4757495;29;177865;-65
2021/01/30 06:20:56;;;;;;;12.13;8.00;;;;;;;;;;4769609;29;180388;-65
2021/01/30 06:23:22;;;;;;;14.23;7.80;;;;;;;;;;4775491;29;178570;-65
2021/01/30 06:25:49;;;;;;;15.57;8.33;;;;;;;;;;4778970;29;178406;-65
2021/01/30 06:28:22;;;;;;;11.53;8.00;;;;;;;;;;4777984;29;177074;-65
2021/01/30 06:30:49;;;;;;;19.07;8.00;;;;;;;;;;4777795;29;179339;-65
2021/01/30 06:33:20;;;;;;;17.93;7.87;;;;;;;;;;4774370;29;178575;-65
2021/01/30 06:35:47;;;;;;;15.37;7.50;;;;;;;;;;4767614;29;181794;-65
2021/01/30 06:38:18;;;;;;;14.30;7.87;;;;;;;;;;4774011;29;178942;-65
2021/01/30 06:40:50;;;;;;;15.63;7.63;;;;;;;;;;4777525;29;179155;-66
2021/01/30 06:43:34;;;;;;;13.83;8.17;;;;;;;;;;4777185;29;178264;-66
2021/01/30 06:46:02;;;;;;;14.70;7.80;;;;;;;;;;4775440;29;178787;-65
2021/01/30 06:48:34;;;;;;;28.70;9.27;;;;;;;;;;4776686;29;178646;-66
2021/01/30 06:51:01;;;;;;;37.37;10.57;;;;;;;;;;4775577;29;180255;-65
2021/01/30 06:53:32;;;;;;;44.43;8.97;;;;;;;;;;4776521;29;179016;-65
2021/01/30 06:56:13;;;;;;;34.80;9.43;;;;;;;;;;4774300;29;179389;-65
2021/01/30 06:58:41;;;;;;;19.17;8.30;;;;;;;;;;4778461;29;177938;-65
2021/01/30 07:01:10;;;;;;;22.40;8.60;;;;;;;;;;4774210;29;182730;-65
2021/01/30 07:03:55;;;;;;;25.13;9.30;;;;;;;;;;4768868;29;182050;-65
2021/01/30 07:06:29;;;;;;;25.47;9.33;;;;;;;;;;4773563;28;177995;-65
2021/01/30 07:09:03;;;;;;;21.67;8.30;;;;;;;;;;4773764;28;179426;-65
2021/01/30 07:11:42;;;;;;;23.87;8.67;;;;;;;;;;4768555;29;179071;-65
2021/01/30 07:14:29;;;;;;;63.67;12.87;;;;;;;;;;4772169;29;178403;-66
2021/01/30 07:17:15;;;;;;;25.50;8.43;;;;;;;;;;4753334;29;179395;-66
2021/01/30 07:19:54;;;;;;;45.83;11.43;;;;;;;;;;4776032;28;176884;-66
2021/01/30 07:22:24;;;;;;;36.57;9.73;;;;;;;;;;4760056;29;179240;-66
2021/01/30 07:25:06;;;;;;;21.40;8.30;;;;;;;;;;4756775;29;178107;-66
2021/01/30 07:27:47;;;;;;;30.63;10.13;;;;;;;;;;4759636;29;181210;-66
2021/01/30 07:30:26;;;;;;;12.37;7.70;;;;;;;;;;4771699;29;178668;-66
2021/01/30 07:32:59;;;;;;;20.93;7.73;;;;;;;;;;4773147;29;179877;-66
2021/01/30 07:35:32;;;;;;;17.57;7.80;;;;;;;;;;4772414;29;182122;-66
2021/01/30 07:38:07;;;;;;;8.63;6.83;;;;;;;;;;4775887;29;177959;-66
2021/01/30 07:40:41;;;;;;;11.83;7.57;;;;;;;;;;4774372;29;177986;-66
2021/01/30 07:43:13;;;;;;;22.03;8.67;;;;;;;;;;4774740;29;179864;-66
2021/01/30 07:45:51;;;;;;;21.23;8.03;;;;;;;;;;4774752;29;178211;-66
2021/01/30 07:48:20;;;;;;;9.90;6.30;;;;;;;;;;4757565;29;178496;-66
2021/01/30 07:50:52;;;;;;;10.40;6.43;;;;;;;;;;4766465;29;178204;-66
2021/01/30 07:53:20;;;;;;;9.70;6.40;;;;;;;;;;4770363;29;183154;-66
2021/01/30 07:56:00;;;;;;;13.27;6.97;;;;;;;;;;4774734;29;181960;-66
2021/01/30 07:58:39;;;;;;;10.70;6.37;;;;;;;;;;4774989;29;177960;-66
2021/01/30 08:01:27;;;;;;;13.23;7.10;;;;;;;;;;4756922;29;178178;-66
2021/01/30 08:04:03;;;;;;;9.10;5.77;;;;;;;;;;4768693;29;179024;-66
2021/01/30 08:06:56;;;;;;;11.70;7.37;;;;;;;;;;4764302;29;179002;-69
2021/01/30 08:09:39;;;;;;;7.57;5.50;;;;;;;;;;4766949;28;178174;-66
2021/01/30 08:12:14;;;;;;;10.70;7.63;;;;;;;;;;4768407;29;176943;-66
2021/01/30 08:14:59;;;;;;;8.63;5.50;;;;;;;;;;4772265;29;179481;-66
2021/01/30 08:17:45;;;;;;;5.97;4.60;;;;;;;;;;4769611;29;178308;-66
2021/01/30 08:20:15;;;;;;;7.00;4.77;;;;;;;;;;4768893;29;183456;-68
2021/01/30 08:22:49;;;;;;;9.23;5.10;;;;;;;;;;4768788;29;179138;-65
2021/01/30 08:25:35;;;;;;;7.40;5.40;;;;;;;;;;4764367;29;179724;-65
2021/01/30 08:28:09;;;;;;;11.17;5.33;;;;;;;;;;4773216;29;178566;-65
2021/01/30 08:30:36;;;;;;;10.90;5.07;;;;;;;;;;4775378;29;178242;-66
2021/01/30 08:33:04;;;;;;;12.23;5.40;;;;;;;;;;4759229;29;178037;-66
2021/01/30 08:35:31;;;;;;;7.70;5.43;;;;;;;;;;4757783;29;179241;-66
2021/01/30 08:38:16;;;;;;;21.13;5.17;;;;;;;;;;4758763;29;177750;-66
2021/01/30 08:41:08;;;;;;;19.53;4.67;;;;;;;;;;4758977;29;177808;-66
2021/01/30 08:43:39;;;;;;;12.87;4.23;;;;;;;;;;4758774;29;177937;-66
2021/01/30 08:46:24;;;;;;;17.13;4.50;;;;;;;;;;4755788;29;182589;-66
2021/01/30 08:49:20;;;;;;;7.17;3.90;;;;;;;;;;4758386;29;180946;-67
2021/01/30 08:52:07;;;;;;;6.33;4.00;;;;;;;;;;4758898;29;178242;-67
2021/01/30 08:54:43;;;;;;;14.97;3.90;;;;;;;;;;4758290;29;178104;-69
2021/01/30 08:57:28;;;;;;;8.20;3.50;;;;;;;;;;4758240;29;178479;-71
2021/01/30 08:59:55;;;;;;;10.27;3.67;;;;;;;;;;4758359;29;177998;-71
2021/01/30 09:02:32;;;;;;;12.57;3.50;;;;;;;;;;4758537;29;177892;-70
2021/01/30 09:04:59;;;;;;;10.33;3.63;;;;;;;;;;4769112;29;176580;-71
2021/01/30 09:07:35;;;;;;;6.60;3.40;;;;;;;;;;4776594;29;179372;-71
2021/01/30 09:10:17;;;;;;;12.87;3.33;;;;;;;;;;4759772;29;181130;-70
2021/01/30 09:12:58;;;;;;;5.20;2.97;;;;;;;;;;4775275;29;181719;-68
2021/01/30 09:15:43;;;;;;;7.60;2.80;;;;;;;;;;4776869;29;178368;-69
2021/01/30 09:18:14;;;;;;;4.33;2.70;;;;;;;;;;4776446;29;179322;-69
2021/01/30 09:21:02;;;;;;;5.23;2.67;;;;;;;;;;4776356;29;178783;-70
2021/01/30 09:23:34;;;;;;;5.40;2.90;;;;;;;;;;4776239;29;177890;-70
2021/01/30 09:26:09;;;;;;;5.53;2.60;;;;;;;;;;4776781;29;177937;-70
2021/01/30 09:28:36;;;;;;;5.00;2.80;;;;;;;;;;4776537;29;179096;-69
2021/01/30 09:31:05;;;;;;;5.27;2.43;;;;;;;;;;4776531;29;177853;-68
2021/01/30 09:33:33;;;;;;;2.97;2.53;;;;;;;;;;4776051;29;178442;-68
2021/01/30 09:36:09;;;;;;;7.80;3.20;;;;;;;;;;4776833;29;178623;-68
2021/01/30 09:38:39;;;;;;;6.40;2.70;;;;;;;;;;4772533;29;183632;-67
2021/01/30 09:41:06;;;;;;;5.37;2.50;;;;;;;;;;4774449;29;181837;-67
2021/01/30 09:43:33;;;;;;;4.83;2.50;;;;;;;;;;4776074;29;177915;-68
2021/01/30 09:46:02;;;;;;;4.50;2.57;;;;;;;;;;4774593;29;178033;-67
2021/01/30 09:48:29;;;;;;;3.10;2.50;;;;;;;;;;4774073;29;180050;-67
2021/01/30 09:50:57;;;;;;;4.30;2.20;;;;;;;;;;4774639;29;178767;-67
2021/01/30 09:53:27;;;;;;;7.87;2.30;;;;;;;;;;4776283;29;178476;-67
2021/01/30 09:56:00;;;;;;;3.13;2.13;;;;;;;;;;4759666;29;176548;-67
2021/01/30 09:58:26;;;;;;;4.20;2.20;;;;;;;;;;4773264;29;178724;-67
2021/01/30 10:00:54;;;;;;;6.53;2.33;;;;;;;;;;4770600;29;180650;-67
2021/01/30 10:03:22;;;;;;;4.27;2.20;;;;;;;;;;4760885;29;182986;-68
2021/01/30 10:05:55;;;;;;;2.50;2.10;;;;;;;;;;4780150;29;178618;-67
2021/01/30 10:08:28;;;;;;;5.90;2.20;;;;;;;;;;4779490;29;179715;-67
2021/01/30 10:11:08;;;;;;;2.70;1.90;;;;;;;;;;4775994;28;178151;-68
2021/01/30 10:13:36;;;;;;;9.53;2.20;;;;;;;;;;4774573;29;177967;-66
2021/01/30 10:16:03;;;;;;;6.77;2.00;;;;;;;;;;4778976;29;178386;-66
2021/01/30 10:18:33;;;;;;;6.43;2.00;;;;;;;;;;4779533;29;179497;-66
2021/01/30 10:21:01;;;;;;;3.37;2.30;;;;;;;;;;4776059;29;178453;-66
2021/01/30 10:23:29;;;;;;;2.40;1.70;;;;;;;;;;4778724;29;177981;-65
2021/01/30 10:26:05;;;;;;;7.83;2.20;;;;;;;;;;4778048;29;178421;-65
2021/01/30 10:28:50;;;;;;;3.37;1.70;;;;;;;;;;4772149;29;182371;-65
2021/01/30 10:31:19;;;;;;;3.80;1.87;;;;;;;;;;4778724;29;181580;-66
2021/01/30 10:33:48;;;;;;;9.17;2.33;;;;;;;;;;4779581;29;178418;-66
2021/01/30 10:36:16;;;;;;;4.93;2.90;;;;;;;;;;4779859;29;177955;-66
2021/01/30 10:38:43;;;;;;;3.50;2.17;;;;;;;;;;4778595;29;179592;-66
2021/01/30 10:41:15;;;;;;;4.70;2.67;;;;;;;;;;4779174;29;177879;-66
2021/01/30 10:43:43;;;;;;;5.97;1.93;;;;;;;;;;4779904;29;177941;-66
2021/01/30 10:46:15;;;;;;;3.53;1.90;;;;;;;;;;4780283;29;176990;-65
2021/01/30 10:48:42;;;;;;;4.53;2.50;;;;;;;;;;4769380;29;179215;-65
2021/01/30 10:51:28;;;;;;;2.77;1.80;;;;;;;;;;4760515;29;178397;-65
2021/01/30 10:54:09;;;;;;;3.63;2.07;;;;;;;;;;4770447;29;181601;-65
2021/01/30 10:56:36;;;;;;;6.63;2.23;;;;;;;;;;4779731;29;178087;-65
2021/01/30 10:59:19;;;;;;;3.70;1.53;;;;;;;;;;4778367;29;179043;-66
2021/01/30 11:01:46;;;;;;;4.50;2.10;;;;;;;;;;4779559;29;177893;-66
2021/01/30 11:04:23;;;;;;;4.80;1.80;;;;;;;;;;4779186;29;177994;-64
2021/01/30 11:06:51;;;;;;;6.67;1.80;;;;;;;;;;4778067;29;178689;-65
2021/01/30 11:09:24;;;;;;;11.23;2.43;;;;;;;;;;4777700;28;178928;-65
2021/01/30 11:11:52;;;;;;;6.83;2.93;;;;;;;;;;4778929;29;177628;-65
2021/01/30 11:14:24;;;;;;;6.07;2.17;;;;;;;;;;4776072;29;178105;-66
2021/01/30 11:16:51;;;;;;;4.87;2.00;;;;;;;;;;4778146;28;178551;-66
2021/01/30 11:19:21;;;;;;;5.03;1.80;;;;;;;;;;4775936;29;182679;-66
2021/01/30 11:21:49;;;;;;;5.70;2.23;;;;;;;;;;4775888;29;181461;-66
2021/01/30 11:24:17;;;;;;;10.23;2.77;;;;;;;;;;4779202;29;178320;-65
2021/01/30 11:26:44;;;;;;;5.17;1.87;;;;;;;;;;4776997;29;178614;-66
2021/01/30 11:29:32;;;;;;;11.73;1.83;;;;;;;;;;4757934;29;182315;-66
2021/01/30 11:31:59;;;;;;;8.10;2.13;;;;;;;;;;4777189;28;178319;-66
2021/01/30 11:34:27;;;;;;;3.70;2.00;;;;;;;;;;4776096;28;178522;-66
2021/01/30 11:36:54;;;;;;;7.37;1.90;;;;;;;;;;4777588;29;176660;-66
2021/01/30 11:39:28;;;;;;;6.10;1.97;;;;;;;;;;4766350;29;180693;-66
2021/01/30 11:41:55;;;;;;;2.13;1.80;;;;;;;;;;4777869;29;177968;-65
2021/01/30 11:44:22;;;;;;;4.03;2.33;;;;;;;;;;4774918;29;181442;-66
2021/01/30 11:46:49;;;;;;;2.97;2.10;;;;;;;;;;4776036;28;177872;-66
2021/01/30 11:49:17;;;;;;;4.23;2.20;;;;;;;;;;4776506;29;178487;-66
2021/01/30 11:51:44;;;;;;;3.73;2.17;;;;;;;;;;4776797;29;178253;-66
2021/01/30 11:54:12;;;;;;;6.70;2.40;;;;;;;;;;4778183;28;178648;-66
2021/01/30 11:56:39;;;;;;;4.17;1.93;;;;;;;;;;4778398;29;178168;-66
2021/01/30 11:59:06;;;;;;;5.93;1.93;;;;;;;;;;4778086;29;179307;-66
2021/01/30 12:01:33;;;;;;;3.30;1.80;;;;;;;;;;4777991;29;178173;-66
2021/01/30 12:04:00;;;;;;;4.50;2.27;;;;;;;;;;4771696;29;180088;-66
2021/01/30 12:06:26;;;;;;;3.67;2.30;;;;;;;;;;4760266;29;178426;-66
2021/01/30 12:08:54;;;;;;;8.77;2.13;;;;;;;;;;4771479;29;183040;-66
2021/01/30 12:11:21;;;;;;;5.37;2.27;;;;;;;;;;4774179;29;181857;-66
2021/01/30 12:13:47;;;;;;;3.93;2.07;;;;;;;;;;4773103;29;178001;-66
2021/01/30 12:16:15;;;;;;;7.73;1.70;;;;;;;;;;4767431;29;178657;-65
2021/01/30 12:18:42;;;;;;;3.40;1.80;;;;;;;;;;4767652;28;178900;-65
2021/01/30 12:21:09;;;;;;;4.53;1.90;;;;;;;;;;4771214;29;178087;-65
2021/01/30 12:23:35;;;;;;;3.63;1.90;;;;;;;;;;4776662;29;177749;-65
2021/01/30 12:26:02;;;;;;;3.10;1.70;;;;;;;;;;4778802;29;176339;-65
2021/01/30 12:28:35;;;;;;;3.40;1.57;;;;;;;;;;4770769;29;178840;-65
2021/01/30 12:31:03;;;;;;;4.17;1.90;;;;;;;;;;4770098;29;179385;-65
2021/01/30 12:33:29;;;;;;;2.23;2.00;;;;;;;;;;4773130;29;182018;-66
2021/01/30 12:35:56;;;;;;;2.13;1.90;;;;;;;;;;4775175;29;179156;-66
2021/01/30 12:38:24;;;;;;;3.57;2.43;;;;;;;;;;4775438;29;179659;-67
2021/01/30 12:40:52;;;;;;;10.00;2.50;;;;;;;;;;4774575;29;179700;-64
2021/01/30 12:43:20;;;;;;;2.63;1.90;;;;;;;;;;4774870;29;178163;-66
2021/01/30 12:45:47;;;;;;;3.57;1.67;;;;;;;;;;4772832;29;178518;-66
2021/01/30 12:48:13;;;;;;;2.57;2.03;;;;;;;;;;4774482;29;179935;-68
2021/01/30 12:50:40;;;;;;;2.87;2.00;;;;;;;;;;4775179;29;177799;-66
2021/01/30 12:53:07;;;;;;;1.80;1.70;;;;;;;;;;4774394;29;178325;-66
2021/01/30 12:55:35;;;;;;;2.93;1.90;;;;;;;;;;4774823;29;178555;-66
2021/01/30 12:58:11;;;;;;;3.10;2.03;;;;;;;;;;4773609;29;182809;-66
2021/01/30 13:00:38;;;;;;;3.27;2.27;;;;;;;;;;4774132;29;181641;-66
2021/01/30 13:03:05;;;;;;;12.63;2.97;;;;;;;;;;4773729;29;177936;-67
2021/01/30 13:05:32;;;;;;;9.93;2.50;;;;;;;;;;4758624;29;177939;-66
2021/01/30 13:08:00;;;;;;;5.53;2.23;;;;;;;;;;4774331;29;179186;-66
2021/01/30 13:10:26;;;;;;;7.10;2.90;;;;;;;;;;4774366;29;178141;-66
2021/01/30 13:12:54;;;;;;;6.03;2.33;;;;;;;;;;4774496;29;178415;-66
2021/01/30 13:15:22;;;;;;;9.40;2.60;;;;;;;;;;4773980;28;176521;-66
2021/01/30 13:17:48;;;;;;;8.47;2.20;;;;;;;;;;4773217;29;180123;-66
2021/01/30 13:20:16;;;;;;;4.20;2.17;;;;;;;;;;4768804;29;179640;-67
2021/01/30 13:22:42;;;;;;;3.20;1.80;;;;;;;;;;4771729;29;181822;-67
2021/01/30 13:25:10;;;;;;;3.77;2.10;;;;;;;;;;4774978;29;178746;-67
2021/01/30 13:27:36;;;;;;;6.47;2.60;;;;;;;;;;4772786;28;179559;-67
2021/01/30 13:30:12;;;;;;;4.90;1.83;;;;;;;;;;4770533;29;178233;-67
2021/01/30 13:32:38;;;;;;;6.30;1.90;;;;;;;;;;4776955;29;178175;-66
2021/01/30 13:35:05;;;;;;;12.23;2.37;;;;;;;;;;4779772;29;177929;-66
2021/01/30 13:37:32;;;;;;;8.17;2.07;;;;;;;;;;4780254;29;178689;-66
2021/01/30 13:39:59;;;;;;;4.80;2.27;;;;;;;;;;4781093;29;177560;-67
2021/01/30 13:42:25;;;;;;;2.77;1.80;;;;;;;;;;4780448;29;179110;-66
2021/01/30 13:44:53;;;;;;;5.13;1.80;;;;;;;;;;4780638;29;178046;-66
2021/01/30 13:47:19;;;;;;;8.20;1.80;;;;;;;;;;4778367;29;181498;-66
2021/01/30 13:49:46;;;;;;;2.40;1.57;;;;;;;;;;4779969;29;183012;-66
2021/01/30 13:52:13;;;;;;;1.60;1.50;;;;;;;;;;4780140;29;178144;-66
2021/01/30 13:54:40;;;;;;;2.13;1.50;;;;;;;;;;4780689;29;177913;-65
2021/01/30 13:57:06;;;;;;;2.57;1.90;;;;;;;;;;4780006;29;179481;-65
2021/01/30 13:59:34;;;;;;;2.53;1.80;;;;;;;;;;4780022;29;178176;-65
2021/01/30 14:02:01;;;;;;;3.70;1.90;;;;;;;;;;4780109;29;177895;-64
2021/01/30 14:04:28;;;;;;;2.70;1.57;;;;;;;;;;4781094;29;176265;-66
2021/01/30 14:06:55;;;;;;;3.60;1.80;;;;;;;;;;4780097;29;179265;-65
2021/01/30 14:09:21;;;;;;;3.63;1.70;;;;;;;;;;4779279;29;178693;-66
2021/01/30 14:11:49;;;;;;;2.17;1.83;;;;;;;;;;4777135;29;181716;-66
2021/01/30 14:14:16;;;;;;;3.60;2.10;;;;;;;;;;4778254;29;178950;-65
2021/01/30 14:16:43;;;;;;;7.20;2.17;;;;;;;;;;4779491;29;179985;-64
2021/01/30 14:19:09;;;;;;;4.53;2.00;;;;;;;;;;4779565;29;178132;-65
2021/01/30 14:21:36;;;;;;;6.57;1.93;;;;;;;;;;4779985;29;178376;-65
2021/01/30 14:24:03;;;;;;;9.97;1.73;;;;;;;;;;4779652;29;178135;-65
2021/01/30 14:26:29;;;;;;;3.63;1.67;;;;;;;;;;4779665;29;179493;-65
2021/01/30 14:28:56;;;;;;;5.50;1.77;;;;;;;;;;4779036;29;179051;-64
2021/01/30 14:31:23;;;;;;;2.23;1.70;;;;;;;;;;4778005;29;178637;-66
2021/01/30 14:33:50;;;;;;;1.97;1.60;;;;;;;;;;4778774;29;179282;-64
2021/01/30 14:36:17;;;;;;;5.00;1.50;;;;;;;;;;4777798;29;182599;-64
2021/01/30 14:38:46;;;;;;;3.40;1.70;;;;;;;;;;4762476;29;185094;-64
2021/01/30 14:41:13;;;;;;;4.97;1.80;;;;;;;;;;4772850;29;178333;-64
2021/01/30 14:43:40;;;;;;;9.07;1.80;;;;;;;;;;4760048;29;177985;-64